Time;durP1;ratioP1;P1;durP2;ratioP2;P2;SDS_P1;SDS_P2;PMS_P1;PMS_P2;Temp;Humidity;BMP_temperature;BMP_pressure;BME280_temperature;BME280_humidity;BME280_pressure;Samples;Min_cycle;Max_cycle;Signal;HPM_P1;HPM_P2
2023/04/14 04:31:05;;;;;;;7.65;1.77;;;8.60;84.80;;;;;;5644196;23;20080;-85
2023/04/14 04:33:31;;;;;;;7.80;2.05;;;8.70;85.20;;;;;;4958443;28;20046;-86
2023/04/14 04:35:57;;;;;;;10.93;2.30;;;8.70;85.50;;;;;;4941583;29;20020;-86
2023/04/14 04:38:23;;;;;;;7.10;2.15;;;8.70;86.00;;;;;;4921073;29;20028;-85
2023/04/14 04:40:48;;;;;;;13.48;2.33;;;8.70;86.00;;;;;;4939503;29;20035;-85
2023/04/14 04:43:17;;;;;;;7.13;1.75;;;8.70;86.10;;;;;;4940769;29;20785;-86
2023/04/14 04:45:52;;;;;;;6.90;1.85;;;8.60;86.20;;;;;;4920955;29;20419;-84
2023/04/14 04:48:18;;;;;;;11.05;2.75;;;8.60;85.90;;;;;;4937346;29;20032;-85
2023/04/14 04:50:43;;;;;;;5.88;2.08;;;8.60;86.20;;;;;;4943229;29;20056;-82
2023/04/14 04:53:11;;;;;;;8.35;2.05;;;8.60;86.00;;;;;;4938038;29;20039;-80
2023/04/14 04:55:36;;;;;;;4.75;1.65;;;8.50;86.50;;;;;;4942633;29;20042;-83
2023/04/14 04:58:02;;;;;;;8.50;2.22;;;8.50;86.40;;;;;;4943271;29;20079;-89
2023/04/14 05:00:28;;;;;;;7.28;2.30;;;8.50;86.70;;;;;;4941670;29;20157;-89
2023/04/14 05:02:53;;;;;;;11.50;2.78;;;8.60;86.60;;;;;;4961509;28;20023;-87
2023/04/14 05:05:19;;;;;;;12.40;1.85;;;8.60;86.50;;;;;;4962553;28;20494;-84
2023/04/14 05:07:45;;;;;;;9.13;2.33;;;8.60;86.70;;;;;;4945833;29;20116;-85
2023/04/14 05:10:11;;;;;;;5.07;1.52;;;8.60;86.70;;;;;;4958960;29;20023;-84
2023/04/14 05:12:36;;;;;;;6.50;1.73;;;8.50;87.30;;;;;;4944732;29;20031;-82
2023/04/14 05:15:03;;;;;;;13.20;2.15;;;8.50;87.70;;;;;;4960331;29;20414;-77
2023/04/14 05:17:29;;;;;;;8.65;1.90;;;8.60;87.70;;;;;;4941817;29;20105;-82
2023/04/14 05:19:56;;;;;;;5.15;1.75;;;8.60;87.40;;;;;;4945019;29;20023;-78
2023/04/14 05:22:22;;;;;;;6.28;1.90;;;8.70;87.50;;;;;;4943969;29;20028;-78
2023/04/14 05:24:49;;;;;;;4.07;1.60;;;8.70;87.40;;;;;;4943861;29;20114;-77
2023/04/14 05:27:15;;;;;;;7.05;2.40;;;8.70;87.10;;;;;;4943655;29;20088;-79
2023/04/14 05:29:41;;;;;;;7.25;1.98;;;8.70;87.20;;;;;;4942704;29;20430;-77
2023/04/14 05:32:07;;;;;;;4.90;1.55;;;8.70;87.20;;;;;;4943630;29;20054;-79
2023/04/14 05:34:33;;;;;;;5.55;1.60;;;8.70;87.40;;;;;;4944177;29;20387;-79
2023/04/14 05:36:59;;;;;;;3.50;1.65;;;8.70;87.50;;;;;;4947277;29;20023;-83
2023/04/14 05:39:25;;;;;;;8.50;2.03;;;8.80;87.30;;;;;;4943280;29;20034;-78
2023/04/14 05:41:52;;;;;;;5.80;1.88;;;8.70;87.50;;;;;;4958555;29;20027;-80
2023/04/14 05:44:27;;;;;;;6.50;1.85;;;8.70;87.80;;;;;;4940905;29;20035;-83
2023/04/14 05:46:52;;;;;;;5.60;1.90;;;8.70;87.80;;;;;;4951418;29;20059;-78
2023/04/14 05:49:18;;;;;;;3.00;1.23;;;8.70;88.00;;;;;;4958932;29;20103;-77
2023/04/14 05:51:44;;;;;;;4.78;1.58;;;8.70;88.10;;;;;;4959598;29;20027;-79
2023/04/14 05:54:10;;;;;;;3.15;1.30;;;8.80;87.60;;;;;;4960060;29;20034;-78
2023/04/14 05:56:36;;;;;;;11.93;3.28;;;8.70;87.60;;;;;;4944281;29;20035;-78
2023/04/14 05:59:02;;;;;;;11.85;4.55;;;8.80;87.80;;;;;;4943634;29;20028;-78
2023/04/14 06:01:28;;;;;;;4.50;2.00;;;8.80;87.60;;;;;;4943755;29;20441;-79
2023/04/14 06:03:54;;;;;;;3.30;1.52;;;8.90;87.50;;;;;;4943423;29;20035;-78
2023/04/14 06:06:20;;;;;;;2.22;1.55;;;8.90;87.40;;;;;;4943667;29;20023;-77
2023/04/14 06:08:46;;;;;;;4.75;1.67;;;8.90;87.70;;;;;;4942682;29;20027;-77
2023/04/14 06:11:12;;;;;;;7.10;1.55;;;8.90;87.60;;;;;;4944437;29;20063;-78
2023/04/14 06:13:38;;;;;;;4.03;2.17;;;9.10;87.60;;;;;;4942883;29;20042;-78
2023/04/14 06:16:04;;;;;;;5.32;1.40;;;9.10;87.20;;;;;;4919058;29;20073;-78
2023/04/14 06:18:30;;;;;;;6.22;1.58;;;9.00;87.50;;;;;;4929199;29;20038;-78
2023/04/14 06:20:56;;;;;;;1.20;0.95;;;9.00;87.80;;;;;;4959063;29;20446;-78
2023/04/14 06:23:23;;;;;;;1.42;1.27;;;8.90;87.80;;;;;;4942530;29;20548;-78
2023/04/14 06:25:51;;;;;;;1.42;1.10;;;9.10;88.10;;;;;;4940802;29;20039;-77
2023/04/14 06:28:18;;;;;;;2.35;1.27;;;9.20;87.70;;;;;;4941789;29;20035;-77
2023/04/14 06:30:44;;;;;;;1.42;1.00;;;9.30;87.50;;;;;;4941745;29;20086;-77
2023/04/14 06:33:10;;;;;;;3.95;1.80;;;9.30;87.20;;;;;;4940768;29;20039;-77
2023/04/14 06:35:36;;;;;;;4.85;2.30;;;9.20;87.40;;;;;;4937535;29;20033;-76
2023/04/14 06:38:02;;;;;;;3.35;1.50;;;9.30;87.30;;;;;;4953634;28;20111;-76
2023/04/14 06:40:28;;;;;;;4.20;2.20;;;9.20;87.40;;;;;;4956461;29;20549;-77
2023/04/14 06:42:54;;;;;;;2.72;1.20;;;9.20;87.60;;;;;;4940512;29;20059;-77
2023/04/14 06:45:20;;;;;;;3.45;1.30;;;9.20;87.60;;;;;;4954057;29;20041;-76
2023/04/14 06:47:46;;;;;;;2.13;1.20;;;9.20;87.80;;;;;;4958127;29;20431;-77
2023/04/14 06:50:12;;;;;;;3.00;1.08;;;9.20;87.60;;;;;;4956131;29;20027;-76
2023/04/14 06:52:37;;;;;;;1.40;1.20;;;9.20;87.70;;;;;;4941980;29;20027;-77
2023/04/14 06:55:03;;;;;;;1.23;1.00;;;9.30;88.00;;;;;;4940516;29;20536;-77
2023/04/14 06:57:29;;;;;;;1.67;0.98;;;9.40;88.00;;;;;;4942245;29;20027;-77
2023/04/14 06:59:55;;;;;;;1.90;1.20;;;9.40;87.80;;;;;;4941481;29;20565;-77
2023/04/14 07:02:21;;;;;;;1.13;0.85;;;9.30;88.00;;;;;;4939699;29;20512;-77
2023/04/14 07:04:47;;;;;;;1.40;1.05;;;9.40;88.30;;;;;;4958096;29;20110;-77
2023/04/14 07:07:13;;;;;;;1.20;0.85;;;9.40;88.20;;;;;;4941092;29;20027;-77
2023/04/14 07:09:42;;;;;;;2.22;0.80;;;9.50;88.00;;;;;;4940917;29;20031;-77
2023/04/14 07:12:15;;;;;;;1.10;0.70;;;9.60;87.90;;;;;;4956775;28;20027;-77
2023/04/14 07:14:41;;;;;;;2.53;1.05;;;9.70;87.80;;;;;;4940689;29;20111;-75
2023/04/14 07:17:08;;;;;;;1.42;1.20;;;9.80;87.50;;;;;;4957686;29;20038;-74
2023/04/14 07:19:34;;;;;;;1.67;1.23;;;10.00;87.20;;;;;;4956442;29;20482;-75
2023/04/14 07:22:00;;;;;;;1.70;1.20;;;10.20;86.80;;;;;;4940168;29;20654;-82
2023/04/14 07:24:26;;;;;;;2.90;1.23;;;10.30;86.90;;;;;;4940532;29;20030;-76
2023/04/14 07:26:52;;;;;;;2.42;0.90;;;10.50;85.90;;;;;;4954298;29;20023;-76
2023/04/14 07:29:20;;;;;;;1.00;0.85;;;10.70;86.20;;;;;;4939915;29;20114;-78
2023/04/14 07:31:47;;;;;;;1.98;0.80;;;10.70;86.20;;;;;;4952977;29;20055;-77
2023/04/14 07:34:12;;;;;;;2.83;1.00;;;10.80;85.80;;;;;;4955229;29;20061;-78
2023/04/14 07:36:38;;;;;;;2.08;0.98;;;10.70;85.60;;;;;;4940447;29;20047;-77
2023/04/14 07:39:04;;;;;;;0.95;0.82;;;10.80;86.00;;;;;;4956838;29;20450;-77
2023/04/14 07:41:30;;;;;;;1.90;1.00;;;10.80;86.20;;;;;;4941107;29;20033;-78
2023/04/14 07:43:57;;;;;;;1.25;0.85;;;10.90;85.80;;;;;;4955753;29;20098;-79
2023/04/14 07:46:24;;;;;;;1.55;1.17;;;11.00;85.80;;;;;;4941167;29;20398;-78
2023/04/14 07:48:50;;;;;;;2.33;1.02;;;11.20;85.60;;;;;;4940684;29;20054;-78
2023/04/14 07:51:16;;;;;;;2.83;0.95;;;11.30;85.10;;;;;;4941121;29;20035;-77
2023/04/14 07:53:43;;;;;;;2.17;0.80;;;11.50;85.00;;;;;;4940684;29;20031;-78
2023/04/14 07:56:10;;;;;;;4.55;1.52;;;11.60;84.80;;;;;;4940622;29;20118;-78
2023/04/14 07:58:36;;;;;;;1.50;0.90;;;12.20;84.00;;;;;;4939588;29;20086;-77
2023/04/14 08:01:03;;;;;;;2.13;1.00;;;12.50;82.90;;;;;;4940097;29;20027;-78
2023/04/14 08:03:29;;;;;;;2.72;0.98;;;12.50;82.70;;;;;;4940373;29;20398;-77
2023/04/14 08:05:56;;;;;;;2.17;0.77;;;12.40;83.00;;;;;;4937447;29;21353;-78
2023/04/14 08:08:23;;;;;;;2.25;1.10;;;12.30;83.10;;;;;;4957920;29;20015;-78
2023/04/14 08:10:48;;;;;;;2.17;1.35;;;12.10;83.20;;;;;;4960131;28;20025;-78
2023/04/14 08:13:14;;;;;;;2.65;0.70;;;11.90;83.90;;;;;;4940201;29;20027;-78
2023/04/14 08:15:42;;;;;;;0.90;0.70;;;11.90;84.30;;;;;;4942268;28;20206;-78
2023/04/14 08:18:08;;;;;;;1.77;0.93;;;11.80;84.30;;;;;;4933891;29;20107;-79
2023/04/14 08:20:34;;;;;;;2.80;1.05;;;11.80;84.60;;;;;;4940905;29;20090;-78
2023/04/14 08:23:03;;;;;;;3.15;1.02;;;11.80;85.00;;;;;;4955582;28;20027;-77
2023/04/14 08:25:29;;;;;;;3.17;1.13;;;11.90;84.80;;;;;;4938879;29;20038;-78
2023/04/14 08:27:55;;;;;;;3.30;1.30;;;12.00;84.60;;;;;;4939977;29;20016;-77
2023/04/14 08:30:20;;;;;;;2.33;1.23;;;12.00;84.60;;;;;;4940022;29;20028;-78
2023/04/14 08:32:46;;;;;;;5.75;1.40;;;12.00;84.70;;;;;;4954346;29;20039;-78
2023/04/14 08:35:13;;;;;;;3.08;1.13;;;12.00;84.90;;;;;;4937522;29;20027;-78
2023/04/14 08:37:40;;;;;;;2.97;0.95;;;12.00;84.90;;;;;;4938188;29;20106;-77
2023/04/14 08:40:09;;;;;;;1.77;0.93;;;12.00;85.00;;;;;;4938467;29;20062;-78
2023/04/14 08:42:35;;;;;;;6.50;1.30;;;12.10;85.00;;;;;;4933188;29;20055;-78
2023/04/14 08:45:00;;;;;;;2.63;1.52;;;12.20;84.90;;;;;;4936972;29;20062;-78
2023/04/14 08:47:32;;;;;;;2.03;1.20;;;12.20;85.00;;;;;;4939620;29;20032;-78
2023/04/14 08:50:04;;;;;;;4.97;1.38;;;12.30;85.10;;;;;;4954184;29;20575;-78
2023/04/14 08:52:31;;;;;;;6.18;1.48;;;12.30;85.20;;;;;;4957255;29;20372;-78
2023/04/14 08:54:59;;;;;;;5.43;1.50;;;12.40;85.10;;;;;;4939195;29;20438;-78
2023/04/14 08:57:31;;;;;;;3.63;1.00;;;12.60;85.10;;;;;;4939297;29;20132;-78
2023/04/14 08:59:57;;;;;;;9.10;2.13;;;12.70;85.20;;;;;;4951387;28;20062;-78
2023/04/14 09:02:23;;;;;;;3.72;1.38;;;12.80;84.90;;;;;;4939996;29;20133;-77
2023/04/14 09:04:50;;;;;;;10.55;1.90;;;13.00;84.80;;;;;;4954202;29;20035;-77
2023/04/14 09:07:20;;;;;;;8.30;2.00;;;13.20;84.50;;;;;;4940092;29;20035;-79
2023/04/14 09:09:46;;;;;;;9.70;1.75;;;13.50;84.10;;;;;;4938417;29;20024;-79
2023/04/14 09:12:14;;;;;;;8.98;2.25;;;13.50;84.10;;;;;;4956583;28;20118;-79
2023/04/14 09:14:42;;;;;;;10.07;2.50;;;13.60;83.70;;;;;;4939672;29;20390;-76
2023/04/14 09:17:08;;;;;;;14.68;2.53;;;13.70;83.20;;;;;;4937326;29;20382;-78
2023/04/14 09:19:34;;;;;;;8.90;2.15;;;13.70;83.50;;;;;;4939425;29;20029;-78
2023/04/14 09:22:00;;;;;;;12.57;2.88;;;13.70;83.50;;;;;;4955992;29;20054;-78
2023/04/14 09:24:32;;;;;;;9.38;2.58;;;13.80;83.30;;;;;;4934747;29;20027;-78
2023/04/14 09:27:02;;;;;;;7.18;2.08;;;13.90;83.30;;;;;;4956256;29;20046;-78
2023/04/14 09:29:28;;;;;;;8.48;1.98;;;14.10;83.20;;;;;;4939629;29;20024;-78
2023/04/14 09:31:55;;;;;;;11.15;1.88;;;14.20;82.80;;;;;;4953464;29;20111;-78
2023/04/14 09:34:20;;;;;;;6.70;1.60;;;14.10;82.30;;;;;;4955707;28;20050;-78
2023/04/14 09:37:04;;;;;;;9.45;1.70;;;14.10;82.00;;;;;;4942794;29;20019;-78
2023/04/14 09:39:31;;;;;;;8.25;1.90;;;14.20;82.10;;;;;;4942592;29;20527;-78
2023/04/14 09:41:58;;;;;;;11.70;2.58;;;14.20;81.90;;;;;;4957987;29;20106;-79
2023/04/14 09:44:24;;;;;;;8.20;1.75;;;14.10;81.80;;;;;;4942500;29;20031;-79
2023/04/14 09:47:00;;;;;;;5.20;2.28;;;14.20;81.80;;;;;;4942672;29;20090;-79
2023/04/14 09:49:28;;;;;;;6.53;1.35;;;14.30;81.60;;;;;;4942735;29;20034;-79
2023/04/14 09:52:02;;;;;;;6.28;1.75;;;14.20;80.40;;;;;;4959467;28;20023;-79
2023/04/14 09:54:28;;;;;;;8.20;1.65;;;14.00;80.80;;;;;;4942633;29;20031;-78
2023/04/14 09:56:54;;;;;;;10.43;1.83;;;13.90;80.90;;;;;;4940609;29;20039;-78
2023/04/14 09:59:35;;;;;;;11.40;1.85;;;13.80;81.20;;;;;;4937339;29;20482;-79
2023/04/14 10:02:08;;;;;;;12.88;2.03;;;13.80;81.80;;;;;;4953833;28;20038;-78
2023/04/14 10:04:36;;;;;;;8.95;1.73;;;13.80;81.40;;;;;;4941464;29;20023;-78
2023/04/14 10:07:10;;;;;;;4.57;1.75;;;13.80;81.80;;;;;;4937107;29;20038;-78
2023/04/14 10:09:37;;;;;;;6.93;1.92;;;13.90;82.00;;;;;;4941693;29;20027;-79
2023/04/14 10:12:23;;;;;;;12.45;1.85;;;13.80;82.10;;;;;;4936490;29;20250;-79
2023/04/14 10:14:48;;;;;;;9.98;1.35;;;13.80;82.00;;;;;;4938472;29;20043;-78
2023/04/14 10:17:15;;;;;;;9.60;1.75;;;13.80;82.10;;;;;;4940593;29;20023;-78
2023/04/14 10:19:41;;;;;;;8.73;2.00;;;13.80;82.10;;;;;;4959305;29;20012;-78
2023/04/14 10:22:07;;;;;;;9.70;2.72;;;13.80;82.20;;;;;;4941746;29;20061;-78
2023/04/14 10:24:33;;;;;;;6.13;1.60;;;13.80;82.30;;;;;;4938656;29;20047;-79
2023/04/14 10:27:02;;;;;;;4.97;1.40;;;13.90;82.30;;;;;;4938720;29;20031;-78
2023/04/14 10:29:29;;;;;;;6.32;1.80;;;14.10;81.90;;;;;;4940398;29;20030;-79
2023/04/14 10:32:02;;;;;;;11.10;1.75;;;14.10;81.60;;;;;;4937736;29;20060;-78
2023/04/14 10:34:31;;;;;;;8.88;2.20;;;14.00;81.30;;;;;;4941420;29;20477;-79
2023/04/14 10:37:11;;;;;;;10.48;1.80;;;13.90;81.20;;;;;;4940522;29;20034;-80
2023/04/14 10:39:38;;;;;;;6.13;1.60;;;13.80;81.40;;;;;;4939445;29;20028;-78
2023/04/14 10:42:04;;;;;;;7.75;1.75;;;13.80;81.70;;;;;;4938989;29;20028;-78
2023/04/14 10:44:31;;;;;;;10.05;1.75;;;13.70;81.60;;;;;;4938180;29;20035;-78
2023/04/14 10:47:00;;;;;;;12.98;2.22;;;13.70;82.10;;;;;;4957474;28;20100;-78
2023/04/14 10:49:37;;;;;;;14.95;2.20;;;13.60;82.40;;;;;;4940907;29;20041;-78
2023/04/14 10:52:05;;;;;;;12.60;2.17;;;13.60;82.70;;;;;;4938216;29;20417;-78
2023/04/14 10:54:52;;;;;;;6.35;2.63;;;13.60;82.70;;;;;;4928908;29;20090;-78
2023/04/14 10:57:21;;;;;;;7.57;1.92;;;13.50;82.90;;;;;;4935515;29;20398;-79
2023/04/14 10:59:48;;;;;;;15.00;1.38;;;13.40;83.20;;;;;;4938701;29;20390;-78
2023/04/14 11:02:31;;;;;;;7.03;2.05;;;13.40;83.30;;;;;;4939685;29;20035;-79
2023/04/14 11:05:07;;;;;;;10.27;2.15;;;13.40;83.50;;;;;;4951545;29;20027;-80
2023/04/14 11:07:47;;;;;;;12.38;1.98;;;13.40;83.60;;;;;;4941748;29;20031;-78
2023/04/14 11:10:21;;;;;;;9.00;1.55;;;13.40;83.50;;;;;;4942540;28;20028;-78
2023/04/14 11:12:54;;;;;;;5.53;1.60;;;13.50;83.70;;;;;;4941760;29;20050;-79
2023/04/14 11:15:20;;;;;;;13.63;2.33;;;13.60;83.50;;;;;;4938675;29;20031;-79
2023/04/14 11:17:45;;;;;;;9.77;2.45;;;13.70;83.40;;;;;;4943832;29;20027;-81
2023/04/14 11:20:18;;;;;;;14.32;2.50;;;13.70;83.30;;;;;;4954762;29;20031;-82
2023/04/14 11:22:46;;;;;;;12.13;2.90;;;13.60;83.50;;;;;;4947932;28;20035;-82
2023/04/14 11:25:16;;;;;;;6.13;2.33;;;13.50;83.70;;;;;;4965684;28;20050;-82
2023/04/14 11:27:43;;;;;;;16.17;4.40;;;13.50;83.80;;;;;;4963878;28;20866;-81
2023/04/14 11:30:13;;;;;;;13.93;3.17;;;13.50;84.00;;;;;;4966690;28;20162;-81
2023/04/14 11:32:49;;;;;;;13.45;3.60;;;13.60;84.00;;;;;;4949312;28;20561;-81
2023/04/14 11:35:15;;;;;;;17.10;3.83;;;13.60;84.20;;;;;;4965805;28;20036;-81
2023/04/14 11:37:41;;;;;;;14.35;4.22;;;13.70;83.90;;;;;;4955589;28;20506;-77
2023/04/14 11:40:11;;;;;;;12.30;2.75;;;14.00;83.80;;;;;;4938834;29;20023;-79
2023/04/14 11:42:37;;;;;;;10.93;2.42;;;14.30;82.40;;;;;;4937140;29;20032;-79
2023/04/14 11:45:04;;;;;;;10.93;1.77;;;14.80;82.70;;;;;;4938147;29;20715;-79
2023/04/14 11:47:30;;;;;;;12.63;2.28;;;15.30;82.60;;;;;;4939021;29;20028;-79
2023/04/14 11:49:59;;;;;;;19.30;2.75;;;15.60;81.90;;;;;;4943317;29;20041;-79
2023/04/14 11:52:25;;;;;;;13.87;2.10;;;15.80;80.10;;;;;;4945779;29;20406;-79
2023/04/14 11:54:51;;;;;;;9.93;1.52;;;15.80;79.50;;;;;;4957602;29;20030;-79
2023/04/14 11:57:17;;;;;;;7.15;1.50;;;15.80;78.80;;;;;;4953202;29;20410;-79
2023/04/14 11:59:45;;;;;;;8.82;2.13;;;15.70;78.70;;;;;;4934353;28;20035;-79
2023/04/14 12:02:16;;;;;;;6.30;1.77;;;15.60;78.50;;;;;;4937784;29;20074;-79
2023/04/14 12:04:43;;;;;;;9.25;1.83;;;15.90;79.00;;;;;;4946867;29;20051;-80
2023/04/14 12:07:19;;;;;;;10.25;1.60;;;16.30;79.70;;;;;;4953927;29;20031;-80
2023/04/14 12:09:47;;;;;;;8.48;2.45;;;16.60;78.30;;;;;;4953785;29;20062;-79
2023/04/14 12:12:15;;;;;;;11.55;2.47;;;16.70;77.50;;;;;;4971824;28;20034;-80
2023/04/14 12:14:46;;;;;;;7.88;2.38;;;16.80;77.10;;;;;;4972373;28;20031;-79
2023/04/14 12:17:16;;;;;;;7.55;2.35;;;17.00;76.90;;;;;;4935686;29;20046;-79
2023/04/14 12:19:42;;;;;;;5.57;1.63;;;17.10;76.30;;;;;;4938166;29;20114;-79
2023/04/14 12:22:08;;;;;;;5.20;1.13;;;17.00;76.30;;;;;;4957513;29;20505;-80
2023/04/14 12:24:43;;;;;;;5.70;1.02;;;17.00;75.80;;;;;;4954099;29;20031;-80
2023/04/14 12:27:09;;;;;;;7.93;1.48;;;17.00;75.80;;;;;;4941192;29;20050;-79
2023/04/14 12:29:38;;;;;;;7.97;1.50;;;16.90;75.10;;;;;;4956891;29;20059;-79
2023/04/14 12:32:11;;;;;;;6.95;1.10;;;16.80;75.50;;;;;;4957396;29;20094;-79
2023/04/14 12:34:38;;;;;;;10.75;1.45;;;16.80;75.60;;;;;;4951159;29;20074;-79
2023/04/14 12:37:10;;;;;;;10.10;2.13;;;16.80;75.10;;;;;;4951264;29;20478;-79
2023/04/14 12:40:00;;;;;;;8.55;1.98;;;16.70;74.10;;;;;;4954764;29;20074;-80
2023/04/14 12:42:50;;;;;;;7.95;1.80;;;16.70;73.40;;;;;;4934206;29;20027;-80
2023/04/14 12:45:16;;;;;;;;;;;16.80;72.40;;;;;;4950901;29;20031;-79
2023/04/14 12:47:53;;;;;;;10.25;1.65;;;16.80;70.90;;;;;;4940276;29;19910;-79
2023/04/14 12:50:29;;;;;;;6.43;1.27;;;16.60;70.50;;;;;;4953758;29;20031;-79
2023/04/14 12:52:55;;;;;;;5.25;1.45;;;16.40;71.30;;;;;;4950074;29;20045;-80
2023/04/14 12:55:27;;;;;;;5.78;1.73;;;16.20;73.40;;;;;;4956229;29;20031;-80
2023/04/14 12:57:53;;;;;;;3.47;1.23;;;16.20;73.90;;;;;;4957424;29;20413;-80
2023/04/14 13:00:23;;;;;;;4.00;1.30;;;16.20;73.20;;;;;;4950996;29;20023;-77
2023/04/14 13:02:49;;;;;;;7.63;1.02;;;16.00;73.90;;;;;;4934861;29;20035;-80
2023/04/14 13:05:16;;;;;;;5.78;1.10;;;16.00;74.50;;;;;;4939996;29;20024;-80
2023/04/14 13:07:42;;;;;;;6.82;1.10;;;15.80;75.20;;;;;;4938552;29;20063;-80
2023/04/14 13:10:09;;;;;;;7.10;1.23;;;15.60;75.00;;;;;;4938515;28;20027;-80
2023/04/14 13:12:35;;;;;;;4.30;1.25;;;15.40;76.30;;;;;;4948236;29;20034;-80
2023/04/14 13:15:02;;;;;;;7.47;1.65;;;15.40;76.60;;;;;;4941498;29;20083;-80
2023/04/14 13:17:27;;;;;;;9.07;2.83;;;15.30;77.40;;;;;;4940551;29;20039;-81
2023/04/14 13:19:53;;;;;;;4.97;1.17;;;15.30;77.70;;;;;;4941466;29;20024;-80
2023/04/14 13:22:19;;;;;;;7.32;1.48;;;15.10;77.60;;;;;;4960385;29;20034;-80
2023/04/14 13:24:45;;;;;;;8.40;1.50;;;15.10;78.30;;;;;;4949265;29;20477;-81
2023/04/14 13:27:11;;;;;;;9.90;1.45;;;15.00;78.70;;;;;;4940433;29;20291;-81
2023/04/14 13:29:36;;;;;;;7.82;1.60;;;15.00;78.90;;;;;;4940573;29;20110;-81
2023/04/14 13:32:07;;;;;;;8.90;1.17;;;14.70;79.70;;;;;;4941136;29;20071;-81
2023/04/14 13:34:32;;;;;;;;;;;14.60;79.80;;;;;;4954156;29;20027;-81
2023/04/14 13:36:58;;;;;;;7.20;1.40;;;14.80;79.80;;;;;;4938666;29;19911;-80
2023/04/14 13:39:24;;;;;;;9.15;1.20;;;14.80;78.70;;;;;;4933580;29;20087;-80
2023/04/14 13:41:50;;;;;;;8.98;1.33;;;14.80;78.50;;;;;;4940983;29;20024;-80
2023/04/14 13:44:17;;;;;;;10.25;1.90;;;14.70;79.00;;;;;;4939797;29;20036;-80
2023/04/14 13:46:44;;;;;;;9.85;1.42;;;14.80;79.50;;;;;;4940460;29;20031;-80
2023/04/14 13:49:10;;;;;;;6.07;1.45;;;14.80;79.40;;;;;;4955121;28;20045;-80
2023/04/14 13:51:38;;;;;;;4.95;1.33;;;14.80;79.40;;;;;;4955501;28;20031;-80
2023/04/14 13:54:04;;;;;;;11.23;1.90;;;14.80;79.90;;;;;;4940555;29;20063;-78
2023/04/14 13:56:30;;;;;;;5.07;1.70;;;14.90;79.80;;;;;;4940886;29;20028;-79
2023/04/14 13:58:56;;;;;;;7.95;1.15;;;15.00;79.90;;;;;;4958453;29;20035;-80
2023/04/14 14:01:22;;;;;;;8.00;1.60;;;15.30;79.40;;;;;;4958626;29;20082;-81
2023/04/14 14:03:49;;;;;;;6.50;1.33;;;15.40;79.10;;;;;;4940181;29;20171;-81
2023/04/14 14:06:15;;;;;;;3.88;0.88;;;15.60;79.20;;;;;;4953034;29;20147;-81
2023/04/14 14:08:41;;;;;;;4.63;1.13;;;15.80;79.10;;;;;;4942732;29;20046;-82
2023/04/14 14:11:12;;;;;;;4.63;1.20;;;15.90;79.30;;;;;;4958057;28;20035;-78
2023/04/14 14:13:39;;;;;;;3.75;0.95;;;16.20;79.60;;;;;;4939270;29;20035;-80
2023/04/14 14:16:06;;;;;;;6.18;1.15;;;16.30;79.10;;;;;;4954772;29;20019;-80
2023/04/14 14:18:32;;;;;;;8.20;1.20;;;16.50;78.70;;;;;;4938929;29;20032;-80
2023/04/14 14:20:58;;;;;;;4.60;1.05;;;16.60;78.30;;;;;;4940209;29;20487;-80
2023/04/14 14:23:25;;;;;;;5.93;1.23;;;16.80;78.00;;;;;;4944354;29;20110;-81
2023/04/14 14:25:51;;;;;;;3.03;0.70;;;16.80;76.50;;;;;;4958693;28;20027;-80
2023/04/14 14:28:17;;;;;;;7.00;1.02;;;16.80;74.90;;;;;;4956120;29;20035;-80
2023/04/14 14:30:43;;;;;;;6.47;1.25;;;16.70;75.60;;;;;;4936632;29;20043;-80
2023/04/14 14:33:08;;;;;;;9.18;1.52;;;16.60;75.70;;;;;;4960255;28;20652;-79
2023/04/14 14:35:34;;;;;;;8.90;1.00;;;16.50;76.20;;;;;;4948175;28;20501;-80
2023/04/14 14:37:59;;;;;;;4.78;1.00;;;16.30;76.00;;;;;;4964119;28;20063;-79
2023/04/14 14:40:25;;;;;;;3.58;0.80;;;16.20;75.40;;;;;;4966951;28;20023;-79
2023/04/14 14:42:51;;;;;;;3.28;0.80;;;16.10;76.00;;;;;;4940773;29;20035;-78
2023/04/14 14:45:20;;;;;;;3.17;0.68;;;16.00;76.50;;;;;;4958499;29;20081;-79
2023/04/14 14:47:46;;;;;;;3.63;0.68;;;15.90;76.20;;;;;;4941287;29;20260;-79
2023/04/14 14:50:11;;;;;;;5.97;1.10;;;15.80;76.60;;;;;;4937881;29;20130;-80
2023/04/14 14:52:45;;;;;;;4.10;0.90;;;15.80;77.50;;;;;;4951949;29;20054;-79
2023/04/14 14:59:15;;;;;;;6.43;1.08;;;15.70;78.00;;;;;;4909480;29;20032;-78
2023/04/14 15:02:07;;;;;;;4.32;0.93;;;15.80;78.20;;;;;;4897583;29;20037;-81
2023/04/14 15:05:33;;;;;;;;;;;;;;;;;;;;;
2023/04/14 15:08:42;;;;;;;3.75;1.30;;;16.10;78.30;;;;;;4840114;29;20038;-79
2023/04/14 15:14:43;;;;;;;3.28;1.10;;;16.20;77.20;;;;;;4839850;29;20049;-79
2023/04/14 15:17:09;;;;;;;4.10;1.23;;;16.30;76.30;;;;;;4842105;29;20034;-79
2023/04/14 15:19:35;;;;;;;2.67;0.90;;;16.30;76.30;;;;;;4908372;29;20100;-79
2023/04/14 15:22:00;;;;;;;2.97;0.98;;;16.30;76.90;;;;;;4945788;29;20396;-79
2023/04/14 15:24:26;;;;;;;5.88;0.88;;;16.20;76.60;;;;;;4957312;29;20019;-79
2023/04/14 15:26:55;;;;;;;5.38;1.02;;;16.00;77.00;;;;;;4955042;29;20027;-79
2023/04/14 15:29:23;;;;;;;6.13;1.23;;;15.90;77.40;;;;;;4957601;29;20058;-79
2023/04/14 15:31:49;;;;;;;5.70;2.13;;;15.90;77.30;;;;;;4937747;29;21888;-79
2023/04/14 15:34:15;;;;;;;10.13;1.17;;;15.80;77.50;;;;;;4956291;28;20030;-80
2023/04/14 15:36:40;;;;;;;8.38;1.20;;;15.80;77.90;;;;;;4957107;29;20015;-79
2023/04/14 15:39:06;;;;;;;6.60;1.10;;;16.00;77.80;;;;;;4957322;29;20093;-79
2023/04/14 15:41:32;;;;;;;4.82;1.40;;;16.00;77.20;;;;;;4955468;29;20075;-80
2023/04/14 15:44:38;;;;;;;6.93;1.08;;;16.10;76.90;;;;;;4938494;29;20090;-79
2023/04/14 15:47:04;;;;;;;6.72;1.13;;;16.20;76.30;;;;;;4938456;29;20079;-79
2023/04/14 15:49:40;;;;;;;3.78;1.10;;;16.20;74.90;;;;;;4955067;29;20035;-80
2023/04/14 15:52:08;;;;;;;3.85;1.20;;;16.20;75.20;;;;;;4941291;29;20058;-79
2023/04/14 16:01:38;;;;;;;8.40;1.30;;;16.10;72.90;;;;;;4870279;29;20055;-80
2023/04/14 16:05:03;;;;;;;3.15;1.33;;;16.00;73.90;;;;;;4956309;29;20020;-79
2023/04/14 16:17:12;;;;;;;1.77;0.90;;;16.00;72.20;;;;;;4920011;29;20484;-79
2023/04/14 16:19:38;;;;;;;4.20;1.10;;;15.90;72.40;;;;;;4950019;29;20055;-80
2023/04/14 16:22:04;;;;;;;3.90;0.80;;;15.90;72.30;;;;;;4948714;29;20081;-80
2023/04/14 16:24:29;;;;;;;3.70;1.00;;;15.80;71.50;;;;;;4957766;29;20023;-79
2023/04/14 16:27:07;;;;;;;5.93;1.13;;;15.80;71.90;;;;;;4954920;29;20031;-79
2023/04/14 16:29:33;;;;;;;2.45;0.88;;;15.60;72.10;;;;;;4955678;29;20031;-80
2023/04/14 16:32:09;;;;;;;2.20;0.77;;;15.50;72.00;;;;;;4956011;29;20059;-80
2023/04/14 16:34:35;;;;;;;2.38;1.00;;;15.50;73.00;;;;;;4953928;29;20042;-80
2023/04/14 16:37:01;;;;;;;2.03;0.98;;;15.50;72.70;;;;;;4938336;29;20027;-80
2023/04/14 16:39:26;;;;;;;2.20;0.77;;;15.50;72.40;;;;;;4950103;29;20596;-82
2023/04/14 16:41:52;;;;;;;5.45;1.17;;;15.50;72.60;;;;;;4953584;29;20033;-86
2023/04/14 16:44:18;;;;;;;5.03;1.13;;;15.50;72.90;;;;;;4957347;28;20064;-82
2023/04/14 16:46:43;;;;;;;2.15;1.08;;;15.50;73.10;;;;;;4933908;29;20024;-80
2023/04/14 16:49:09;;;;;;;3.47;1.00;;;15.50;73.00;;;;;;4943071;29;20032;-77
2023/04/14 16:51:36;;;;;;;3.83;1.00;;;15.50;73.60;;;;;;4959492;29;20396;-76
2023/04/14 16:54:02;;;;;;;3.22;1.20;;;15.40;73.70;;;;;;4943626;29;20031;-77
2023/04/14 16:56:28;;;;;;;1.92;0.82;;;15.50;73.80;;;;;;4959225;29;20019;-79
2023/04/14 16:58:54;;;;;;;2.83;1.02;;;15.40;74.10;;;;;;4939771;29;20035;-77
2023/04/14 17:01:19;;;;;;;4.63;1.05;;;15.50;74.10;;;;;;4943350;29;20062;-79
2023/04/14 17:03:45;;;;;;;2.50;1.00;;;15.50;73.70;;;;;;4951272;29;20023;-78
2023/04/14 17:06:11;;;;;;;3.08;0.98;;;15.50;73.50;;;;;;4945606;29;20036;-78
2023/04/14 17:08:37;;;;;;;3.50;1.30;;;15.40;73.50;;;;;;4932864;29;20036;-77
2023/04/14 17:11:03;;;;;;;3.28;1.77;;;15.30;74.00;;;;;;4945263;28;20039;-78
2023/04/14 17:13:29;;;;;;;9.25;6.88;;;15.30;74.20;;;;;;4979156;28;20089;-78
2023/04/14 17:15:54;;;;;;;5.57;2.53;;;15.20;73.70;;;;;;4974750;28;20055;-76
2023/04/14 17:18:20;;;;;;;5.30;1.92;;;15.20;74.00;;;;;;4956566;29;20038;-77
2023/04/14 17:20:46;;;;;;;5.47;2.58;;;15.10;74.30;;;;;;4959339;29;20082;-77
2023/04/14 17:23:13;;;;;;;3.58;2.42;;;15.10;74.40;;;;;;4960330;29;20032;-76
2023/04/14 17:25:40;;;;;;;8.98;4.00;;;15.00;74.30;;;;;;4960307;29;20026;-78
2023/04/14 17:28:06;;;;;;;7.57;4.00;;;15.00;74.50;;;;;;4957503;29;20036;-77
2023/04/14 17:30:32;;;;;;;11.75;3.08;;;15.00;74.00;;;;;;4960109;29;20039;-77
2023/04/14 17:32:59;;;;;;;9.90;3.97;;;14.90;74.70;;;;;;4942517;29;20019;-77
2023/04/14 17:35:25;;;;;;;11.63;6.93;;;14.90;74.60;;;;;;4942252;29;20115;-78
2023/04/14 17:37:51;;;;;;;7.80;2.55;;;14.80;74.90;;;;;;4960119;29;20035;-77
2023/04/14 17:40:17;;;;;;;8.43;3.72;;;14.80;74.80;;;;;;4943044;29;20454;-76
2023/04/14 17:42:43;;;;;;;11.13;5.97;;;14.70;74.50;;;;;;4960049;29;20015;-81
2023/04/14 17:45:09;;;;;;;4.78;2.28;;;14.70;74.70;;;;;;4959678;29;20043;-82
2023/04/14 17:47:36;;;;;;;11.90;5.45;;;14.70;74.50;;;;;;4942476;29;20031;-79